Time;durP1;ratioP1;P1;durP2;ratioP2;P2;SDS_P1;SDS_P2;PMS_P1;PMS_P2;Temp;Humidity;BMP_temperature;BMP_pressure;BME280_temperature;BME280_humidity;BME280_pressure;Samples;Min_cycle;Max_cycle;Signal;HPM_P1;HPM_P2
2024/01/24 00:00:01;;;;;;;7.77;3.33;;;12.60;99.90;;;;;;5064127;28;20209;-82
2024/01/24 00:02:47;;;;;;;;;;;;;;;;;;;;;
2024/01/24 00:05:17;;;;;;;8.07;3.70;;;12.50;99.90;;;;;;5078290;28;20208;-81
2024/01/24 00:07:44;;;;;;;10.17;3.83;;;12.50;99.90;;;;;;5084264;28;20200;-80
2024/01/24 00:10:20;;;;;;;11.67;3.87;;;12.50;99.90;;;;;;5080023;28;20580;-81
2024/01/24 00:12:48;;;;;;;7.40;3.43;;;12.60;99.90;;;;;;5087540;28;20205;-81
2024/01/24 00:15:16;;;;;;;8.93;3.50;;;12.60;99.90;;;;;;5072160;28;20197;-82
2024/01/24 00:17:45;;;;;;;6.57;2.93;;;12.60;99.90;;;;;;5085563;28;20208;-81
2024/01/24 00:20:13;;;;;;;7.77;3.40;;;12.60;99.90;;;;;;5083344;28;20548;-82
2024/01/24 00:22:43;;;;;;;11.88;3.55;;;12.60;99.90;;;;;;5073134;28;20224;-82
2024/01/24 00:25:11;;;;;;;8.88;4.53;;;12.60;99.90;;;;;;5086685;28;20215;-82
2024/01/24 00:27:39;;;;;;;9.75;3.95;;;12.60;99.90;;;;;;5086256;28;20211;-82
2024/01/24 00:30:09;;;;;;;7.67;3.77;;;12.60;99.90;;;;;;5072960;28;20205;-82
2024/01/24 00:32:36;;;;;;;7.17;3.73;;;12.70;99.90;;;;;;5057000;28;20214;-82
2024/01/24 00:35:16;;;;;;;8.77;3.90;;;12.70;99.90;;;;;;5100198;28;20195;-82
2024/01/24 00:37:47;;;;;;;9.23;3.80;;;12.70;99.90;;;;;;5083888;28;20204;-82
2024/01/24 00:42:50;;;;;;;7.07;3.42;;;12.70;99.90;;;;;;5003419;28;20208;-80
2024/01/24 00:45:18;;;;;;;11.20;3.80;;;12.70;99.90;;;;;;5027355;28;20226;-80
2024/01/24 00:47:45;;;;;;;8.53;3.40;;;12.80;99.90;;;;;;5008235;28;20211;-80
2024/01/24 00:50:13;;;;;;;8.23;3.80;;;12.80;99.90;;;;;;5016792;28;20216;-80
2024/01/24 00:52:40;;;;;;;9.88;3.67;;;12.80;99.90;;;;;;5013566;28;20211;-80
2024/01/24 00:55:09;;;;;;;7.60;3.92;;;12.90;99.90;;;;;;5019548;28;20206;-80
2024/01/24 00:57:36;;;;;;;6.35;3.28;;;12.90;99.90;;;;;;5016277;28;20209;-80
2024/01/24 01:00:06;;;;;;;4.80;2.55;;;12.90;99.90;;;;;;5001055;28;20216;-80
2024/01/24 01:02:33;;;;;;;7.05;3.10;;;13.00;99.90;;;;;;5015861;28;20191;-80
2024/01/24 01:05:01;;;;;;;8.15;2.92;;;12.90;99.90;;;;;;5017523;28;20203;-80
2024/01/24 01:07:28;;;;;;;7.78;3.58;;;12.90;99.90;;;;;;5014646;28;20198;-80
2024/01/24 01:09:56;;;;;;;5.50;2.90;;;13.00;99.90;;;;;;5014548;28;20235;-81
2024/01/24 01:12:25;;;;;;;8.13;3.00;;;13.10;99.90;;;;;;5019185;28;20207;-80
2024/01/24 01:14:52;;;;;;;6.93;3.47;;;13.10;99.90;;;;;;5014225;28;20207;-80
2024/01/24 01:17:20;;;;;;;4.38;2.80;;;13.10;99.90;;;;;;5018119;28;20203;-80
2024/01/24 01:19:47;;;;;;;6.80;3.10;;;13.10;99.90;;;;;;5011869;28;20219;-80
2024/01/24 01:22:15;;;;;;;6.80;3.42;;;13.10;99.90;;;;;;5018786;28;20200;-80
2024/01/24 01:24:42;;;;;;;5.20;3.03;;;13.20;99.90;;;;;;5018563;28;20196;-80
2024/01/24 01:27:10;;;;;;;5.90;3.03;;;13.10;99.90;;;;;;5010257;28;20207;-80
2024/01/24 01:29:39;;;;;;;7.32;3.05;;;13.10;99.90;;;;;;5018776;28;20223;-80
2024/01/24 01:32:07;;;;;;;5.85;2.95;;;13.20;99.90;;;;;;5022453;28;20204;-80
2024/01/24 01:34:34;;;;;;;5.35;2.90;;;13.30;99.90;;;;;;5016693;28;20224;-80
2024/01/24 01:37:02;;;;;;;7.10;2.70;;;13.30;99.90;;;;;;5008231;28;20207;-80
2024/01/24 01:39:29;;;;;;;3.67;2.40;;;13.30;99.90;;;;;;5015421;28;20239;-80
2024/01/24 01:41:57;;;;;;;5.72;2.30;;;13.40;99.90;;;;;;5025494;28;20212;-80
2024/01/24 01:44:24;;;;;;;3.85;2.08;;;13.30;99.90;;;;;;5023564;28;20200;-80
2024/01/24 01:46:53;;;;;;;2.55;2.00;;;13.40;99.90;;;;;;5035741;28;20533;-80
2024/01/24 01:49:22;;;;;;;5.40;2.35;;;13.40;99.90;;;;;;5035002;28;20278;-80
2024/01/24 01:51:52;;;;;;;5.15;2.40;;;13.40;99.90;;;;;;5037130;28;20195;-80
2024/01/24 01:54:19;;;;;;;4.80;2.40;;;13.40;99.90;;;;;;5030233;28;20220;-79
2024/01/24 01:56:47;;;;;;;5.40;2.33;;;13.40;99.90;;;;;;5026234;28;20195;-80
2024/01/24 01:59:15;;;;;;;4.97;2.08;;;13.40;99.90;;;;;;5034801;28;20222;-80
2024/01/24 02:01:46;;;;;;;4.82;2.00;;;13.40;99.90;;;;;;5031948;28;20199;-80
2024/01/24 02:04:15;;;;;;;3.30;2.03;;;13.40;99.90;;;;;;5037288;28;20203;-80
2024/01/24 02:06:42;;;;;;;3.67;1.58;;;13.50;99.90;;;;;;5035999;28;20195;-80
2024/01/24 02:09:11;;;;;;;5.32;2.40;;;13.40;99.90;;;;;;5036756;28;20233;-80
2024/01/24 02:11:40;;;;;;;2.67;2.40;;;13.30;99.90;;;;;;5053579;28;20204;-80
2024/01/24 02:14:07;;;;;;;3.75;1.90;;;13.40;99.90;;;;;;5028340;28;20207;-80
2024/01/24 02:16:34;;;;;;;4.53;2.35;;;13.40;99.90;;;;;;5035078;28;20199;-80
2024/01/24 02:19:02;;;;;;;4.00;2.20;;;13.30;99.90;;;;;;5029351;28;20672;-80
2024/01/24 02:21:31;;;;;;;5.10;2.05;;;13.40;99.90;;;;;;5028359;28;20206;-80
2024/01/24 02:23:59;;;;;;;3.08;1.98;;;13.50;99.90;;;;;;5028758;28;20195;-80
2024/01/24 02:26:28;;;;;;;2.65;2.08;;;13.50;99.90;;;;;;5031959;28;20208;-80
2024/01/24 02:28:55;;;;;;;3.92;1.85;;;13.50;99.90;;;;;;5026611;28;20194;-79
2024/01/24 02:31:23;;;;;;;2.90;2.20;;;13.60;99.90;;;;;;5028126;28;20191;-80
2024/01/24 02:33:50;;;;;;;3.00;1.48;;;13.60;99.90;;;;;;5033431;28;20217;-80
2024/01/24 02:36:18;;;;;;;4.18;1.60;;;13.60;99.90;;;;;;5033735;28;20203;-80
2024/01/24 02:38:47;;;;;;;2.47;1.58;;;13.70;99.90;;;;;;5033390;28;20202;-80
2024/01/24 02:41:17;;;;;;;1.15;1.05;;;13.60;99.90;;;;;;5026112;28;20207;-80
2024/01/24 02:43:46;;;;;;;3.83;1.40;;;13.60;99.90;;;;;;5034437;28;20203;-80
2024/01/24 02:46:13;;;;;;;3.63;1.35;;;13.70;99.90;;;;;;5034180;28;20206;-80
2024/01/24 02:48:41;;;;;;;2.90;1.48;;;13.70;99.90;;;;;;5033782;28;20199;-80
2024/01/24 02:51:09;;;;;;;1.63;1.08;;;13.70;99.90;;;;;;5027923;28;20199;-80
2024/01/24 02:53:38;;;;;;;1.75;1.20;;;13.70;99.90;;;;;;5034120;28;20711;-80
2024/01/24 02:56:06;;;;;;;1.88;1.63;;;13.70;99.90;;;;;;5028575;28;20203;-80
2024/01/24 02:58:33;;;;;;;1.17;0.90;;;13.70;99.90;;;;;;5028010;28;20680;-80
2024/01/24 03:01:02;;;;;;;1.85;0.90;;;13.70;99.90;;;;;;5029813;28;20222;-80
2024/01/24 03:03:29;;;;;;;3.50;1.05;;;13.60;99.90;;;;;;5031802;28;20206;-80
2024/01/24 03:05:57;;;;;;;2.88;1.02;;;13.70;99.90;;;;;;5033798;28;20207;-80
2024/01/24 03:08:24;;;;;;;1.40;1.30;;;13.80;99.90;;;;;;5033333;28;20187;-80
2024/01/24 03:10:52;;;;;;;1.08;0.98;;;13.80;99.90;;;;;;5025356;28;20229;-80
2024/01/24 03:13:20;;;;;;;0.88;0.70;;;13.80;99.90;;;;;;5033187;28;20203;-80
2024/01/24 03:15:47;;;;;;;1.10;0.65;;;13.90;99.90;;;;;;5033715;28;20557;-80
2024/01/24 03:18:16;;;;;;;1.75;1.10;;;13.90;99.90;;;;;;5032966;28;20213;-80
2024/01/24 03:20:44;;;;;;;1.38;0.73;;;13.90;99.90;;;;;;5032888;28;20223;-80
2024/01/24 03:23:12;;;;;;;2.53;0.80;;;14.00;99.90;;;;;;5033739;28;20207;-80
2024/01/24 03:25:39;;;;;;;1.48;0.85;;;14.00;99.90;;;;;;5025289;28;20202;-80
2024/01/24 03:28:07;;;;;;;1.38;0.75;;;13.90;99.90;;;;;;5033695;28;20209;-80
2024/01/24 03:30:34;;;;;;;3.50;0.75;;;13.80;99.90;;;;;;5033840;28;20219;-80
2024/01/24 03:33:04;;;;;;;1.40;0.80;;;13.80;99.90;;;;;;5037543;28;20206;-80
2024/01/24 03:35:33;;;;;;;1.48;0.70;;;13.80;99.90;;;;;;5037376;28;20210;-80
2024/01/24 03:38:00;;;;;;;1.73;0.90;;;13.90;99.90;;;;;;5031284;28;20195;-80
2024/01/24 03:40:28;;;;;;;1.20;0.90;;;13.90;99.90;;;;;;5027118;28;20215;-80
2024/01/24 03:42:55;;;;;;;2.03;0.60;;;13.70;99.90;;;;;;5050938;28;20194;-80
2024/01/24 03:45:23;;;;;;;1.85;0.73;;;13.70;99.90;;;;;;5037633;28;20205;-80
2024/01/24 03:47:50;;;;;;;0.88;0.60;;;13.60;99.90;;;;;;5039419;28;20201;-80
2024/01/24 03:50:18;;;;;;;0.85;0.60;;;13.60;99.90;;;;;;5033022;28;20218;-80
2024/01/24 03:52:47;;;;;;;1.02;1.00;;;13.70;99.90;;;;;;5040438;28;20198;-80
2024/01/24 03:55:14;;;;;;;2.05;0.93;;;13.70;99.90;;;;;;5039136;28;20217;-80
2024/01/24 03:57:43;;;;;;;1.88;1.02;;;13.60;99.90;;;;;;5055770;28;20194;-80
2024/01/24 04:00:12;;;;;;;1.83;1.10;;;13.70;99.90;;;;;;5032176;28;20219;-80
2024/01/24 04:02:41;;;;;;;1.20;1.10;;;13.80;99.90;;;;;;5038345;28;20194;-80
2024/01/24 04:05:10;;;;;;;2.05;0.90;;;13.80;99.90;;;;;;5039836;28;20205;-80
2024/01/24 04:07:37;;;;;;;0.82;0.82;;;13.80;99.90;;;;;;5038885;28;20194;-80
2024/01/24 04:10:07;;;;;;;1.42;1.33;;;13.70;99.90;;;;;;5040802;28;20210;-80
2024/01/24 04:12:35;;;;;;;5.38;2.10;;;13.60;99.90;;;;;;5040352;28;20190;-80
2024/01/24 04:15:02;;;;;;;2.55;2.00;;;13.40;99.90;;;;;;5043819;28;20222;-80
2024/01/24 04:17:30;;;;;;;2.53;2.33;;;13.40;99.90;;;;;;5037313;28;20206;-80
2024/01/24 04:19:58;;;;;;;2.00;1.38;;;13.30;99.90;;;;;;5042641;28;20223;-80
2024/01/24 04:22:25;;;;;;;0.88;0.70;;;13.30;99.90;;;;;;5059835;28;20202;-80
2024/01/24 04:24:52;;;;;;;2.38;0.77;;;13.30;99.90;;;;;;5061792;28;20193;-80
2024/01/24 04:27:22;;;;;;;1.27;0.70;;;13.30;99.90;;;;;;5051207;28;20194;-80
2024/01/24 04:29:49;;;;;;;1.00;0.90;;;13.30;99.90;;;;;;5047452;28;20219;-80
2024/01/24 04:32:17;;;;;;;0.65;0.50;;;13.30;99.90;;;;;;5039343;28;20660;-80
2024/01/24 04:34:44;;;;;;;2.67;0.60;;;13.30;99.90;;;;;;5042519;28;20211;-79
2024/01/24 04:37:12;;;;;;;1.67;0.57;;;13.20;99.90;;;;;;5043110;28;20190;-80
2024/01/24 04:39:40;;;;;;;1.10;0.50;;;13.30;99.90;;;;;;5039762;28;20223;-79
2024/01/24 04:42:07;;;;;;;2.00;0.68;;;13.20;99.90;;;;;;5032528;28;20210;-79
2024/01/24 04:44:36;;;;;;;1.60;0.52;;;13.20;99.90;;;;;;5037886;28;20197;-79
2024/01/24 04:47:04;;;;;;;1.48;0.70;;;13.20;99.90;;;;;;5036134;28;20283;-79
2024/01/24 04:49:31;;;;;;;0.70;0.50;;;13.20;99.90;;;;;;5042842;28;20225;-79
2024/01/24 04:52:00;;;;;;;1.15;0.70;;;13.20;99.90;;;;;;5031640;28;20214;-80
2024/01/24 04:54:28;;;;;;;1.75;0.68;;;13.20;99.90;;;;;;5058120;28;20207;-79
2024/01/24 04:56:55;;;;;;;1.85;0.60;;;13.20;99.90;;;;;;5032650;28;20198;-80
2024/01/24 04:59:23;;;;;;;2.63;0.50;;;13.10;99.90;;;;;;5024731;28;20223;-79
2024/01/24 05:01:54;;;;;;;1.52;0.60;;;13.10;99.90;;;;;;5024476;28;20210;-79
2024/01/24 05:04:21;;;;;;;1.20;0.55;;;13.10;99.90;;;;;;5040401;28;20195;-79
2024/01/24 05:06:49;;;;;;;1.65;0.47;;;13.10;99.90;;;;;;5038305;28;20202;-79
2024/01/24 05:09:16;;;;;;;1.58;0.77;;;13.10;99.90;;;;;;5040669;28;20214;-80
2024/01/24 05:11:44;;;;;;;2.17;0.63;;;13.10;99.90;;;;;;5025316;28;20195;-79
2024/01/24 05:14:11;;;;;;;1.58;0.68;;;13.10;99.90;;;;;;5042651;28;20198;-79
2024/01/24 05:16:41;;;;;;;0.75;0.47;;;13.10;99.90;;;;;;5044024;28;20206;-79
2024/01/24 05:19:10;;;;;;;2.22;0.63;;;13.10;99.90;;;;;;5065125;28;20587;-79
2024/01/24 05:21:42;;;;;;;1.70;0.60;;;13.10;99.90;;;;;;5033765;28;20221;-79
2024/01/24 05:24:10;;;;;;;2.00;0.65;;;13.10;99.90;;;;;;5026185;28;20203;-79
2024/01/24 05:26:38;;;;;;;2.17;0.90;;;13.10;99.90;;;;;;5033691;28;20206;-79
2024/01/24 05:29:06;;;;;;;3.63;0.88;;;13.10;99.90;;;;;;5047582;28;20218;-79
2024/01/24 05:31:34;;;;;;;3.88;1.00;;;13.10;99.90;;;;;;5034699;28;20545;-79
2024/01/24 05:34:02;;;;;;;4.63;1.20;;;13.00;99.90;;;;;;5034148;28;20291;-80
2024/01/24 05:36:31;;;;;;;3.00;1.15;;;13.00;99.90;;;;;;5057977;28;20221;-79
2024/01/24 05:38:59;;;;;;;3.47;1.30;;;13.00;99.90;;;;;;5042927;28;20206;-79
2024/01/24 05:41:26;;;;;;;3.90;1.20;;;13.00;99.90;;;;;;5040198;28;20206;-79
2024/01/24 05:43:53;;;;;;;3.88;1.50;;;13.00;99.90;;;;;;5041903;28;20206;-79
2024/01/24 05:46:21;;;;;;;3.10;1.00;;;13.00;99.90;;;;;;5049873;28;20561;-80
2024/01/24 05:48:48;;;;;;;3.78;1.70;;;13.00;99.90;;;;;;5040527;28;20206;-79
2024/01/24 05:51:18;;;;;;;2.80;1.27;;;13.00;99.90;;;;;;5041982;28;20199;-79
2024/01/24 05:53:47;;;;;;;4.82;1.70;;;13.00;99.90;;;;;;5052369;28;20195;-79
2024/01/24 05:56:14;;;;;;;9.10;1.45;;;13.00;99.90;;;;;;5054653;28;20218;-80
2024/01/24 05:58:42;;;;;;;6.30;1.95;;;12.90;99.90;;;;;;5062041;28;20193;-80
2024/01/24 06:01:09;;;;;;;5.80;1.88;;;12.90;99.90;;;;;;5034375;28;20199;-80
2024/01/24 06:03:37;;;;;;;7.65;2.10;;;12.90;99.90;;;;;;5028239;28;20218;-80
2024/01/24 06:06:05;;;;;;;10.82;2.40;;;12.80;99.90;;;;;;5039088;28;20660;-80
2024/01/24 06:08:32;;;;;;;11.27;2.85;;;12.80;99.90;;;;;;5059259;28;20201;-79
2024/01/24 06:11:04;;;;;;;7.53;2.50;;;12.80;99.90;;;;;;5052026;28;20222;-80
2024/01/24 06:13:32;;;;;;;11.98;2.50;;;12.80;99.90;;;;;;5041405;28;20199;-80
2024/01/24 06:15:59;;;;;;;6.00;2.17;;;12.80;99.90;;;;;;5029758;28;20214;-79
2024/01/24 06:18:27;;;;;;;12.88;2.47;;;12.70;99.90;;;;;;5041578;28;20202;-80
2024/01/24 06:20:54;;;;;;;9.13;2.55;;;12.70;99.90;;;;;;5043711;28;20221;-79
2024/01/24 06:23:22;;;;;;;11.13;2.58;;;12.70;99.90;;;;;;5041691;28;20547;-79
2024/01/24 06:25:49;;;;;;;13.60;2.15;;;12.70;99.90;;;;;;5060347;28;20182;-80
2024/01/24 06:28:18;;;;;;;7.53;2.22;;;12.70;99.90;;;;;;5041706;28;20195;-80
2024/01/24 06:30:47;;;;;;;11.77;3.05;;;12.70;99.90;;;;;;5038084;28;20225;-80
2024/01/24 06:33:14;;;;;;;8.35;2.50;;;12.60;99.90;;;;;;5029535;28;20203;-79
2024/01/24 06:35:42;;;;;;;11.73;2.95;;;12.50;99.90;;;;;;5022270;28;20203;-80
2024/01/24 06:38:09;;;;;;;9.90;2.72;;;12.50;99.90;;;;;;5036411;28;20199;-80
2024/01/24 06:40:36;;;;;;;11.88;2.83;;;12.40;99.90;;;;;;5038949;28;20218;-79
2024/01/24 06:43:04;;;;;;;13.85;2.95;;;12.40;99.90;;;;;;5042313;28;20201;-79
2024/01/24 06:45:33;;;;;;;11.15;2.65;;;12.50;99.90;;;;;;5040019;28;20559;-80
2024/01/24 06:48:03;;;;;;;15.50;3.55;;;12.50;99.90;;;;;;5040809;28;20602;-79
2024/01/24 06:50:31;;;;;;;12.57;2.92;;;12.60;99.90;;;;;;5032155;28;20222;-79
2024/01/24 06:52:59;;;;;;;13.68;3.30;;;12.80;99.90;;;;;;5046958;28;20198;-78
2024/01/24 06:55:26;;;;;;;9.88;3.17;;;12.90;99.90;;;;;;5053968;28;20218;-78
2024/01/24 07:04:21;;;;;;;15.05;3.50;;;12.60;99.90;;;;;;4977786;28;20680;-80
2024/01/24 07:06:49;;;;;;;9.95;3.13;;;12.60;99.90;;;;;;5036963;28;20572;-80
2024/01/24 07:09:17;;;;;;;15.18;3.53;;;12.60;99.90;;;;;;5034076;28;20223;-80
2024/01/24 07:11:44;;;;;;;14.57;3.88;;;12.50;99.90;;;;;;5035841;28;20209;-80
2024/01/24 07:14:14;;;;;;;9.32;3.47;;;12.50;99.90;;;;;;5037193;28;20581;-80
2024/01/24 07:16:42;;;;;;;19.85;3.92;;;12.50;99.90;;;;;;5051408;28;20205;-80
2024/01/24 07:19:10;;;;;;;9.13;2.88;;;12.50;99.90;;;;;;5059463;28;20213;-81
2024/01/24 07:21:39;;;;;;;13.40;3.30;;;12.50;99.90;;;;;;5035776;28;20199;-80
2024/01/24 07:24:07;;;;;;;14.27;3.58;;;12.50;99.90;;;;;;5033435;28;20206;-80
2024/01/24 07:26:38;;;;;;;17.40;3.88;;;12.50;99.90;;;;;;5048681;28;20186;-79
2024/01/24 07:29:06;;;;;;;12.80;3.08;;;12.50;99.90;;;;;;5035400;28;20579;-79
2024/01/24 07:31:33;;;;;;;12.48;3.30;;;12.50;99.90;;;;;;5054787;28;20195;-79
2024/01/24 07:34:07;;;;;;;13.60;3.60;;;12.40;99.90;;;;;;5051027;28;20198;-79
2024/01/24 07:36:34;;;;;;;14.40;3.22;;;12.30;99.90;;;;;;5018262;28;20221;-79
2024/01/24 07:39:04;;;;;;;14.75;3.28;;;12.20;99.90;;;;;;5043744;28;20217;-81
2024/01/24 07:41:32;;;;;;;13.55;3.72;;;12.20;99.90;;;;;;5020530;28;20550;-80
2024/01/24 07:44:08;;;;;;;18.35;3.72;;;12.10;99.90;;;;;;5039976;28;20225;-79
2024/01/24 07:46:42;;;;;;;19.75;4.45;;;12.10;99.90;;;;;;5032555;28;20194;-79
2024/01/24 07:49:18;;;;;;;20.65;4.72;;;12.00;99.90;;;;;;5050088;28;20214;-79
2024/01/24 07:51:47;;;;;;;20.02;4.78;;;12.00;99.90;;;;;;5034024;28;20268;-78
2024/01/24 07:54:18;;;;;;;21.42;4.47;;;11.90;99.90;;;;;;5047405;28;20205;-79
2024/01/24 07:56:45;;;;;;;14.68;4.43;;;11.90;99.90;;;;;;5061364;28;20218;-79
2024/01/24 07:59:16;;;;;;;17.05;4.25;;;11.90;99.90;;;;;;5030092;28;20218;-79
2024/01/24 08:01:46;;;;;;;18.67;4.97;;;12.00;99.90;;;;;;5032852;28;20201;-78
2024/01/24 08:04:14;;;;;;;24.65;4.50;;;12.00;99.90;;;;;;5035350;28;20210;-77
2024/01/24 08:06:42;;;;;;;14.10;4.07;;;12.00;99.90;;;;;;5052609;28;20734;-79
2024/01/24 08:09:10;;;;;;;20.00;4.63;;;12.00;99.90;;;;;;5044416;28;20210;-77
2024/01/24 08:11:38;;;;;;;20.13;4.53;;;12.00;99.90;;;;;;5048774;28;20182;-78
2024/01/24 08:14:06;;;;;;;23.17;4.53;;;12.00;99.90;;;;;;5027717;28;20214;-77
2024/01/24 08:16:33;;;;;;;20.48;4.53;;;12.00;99.90;;;;;;5031960;28;20220;-77
2024/01/24 08:19:01;;;;;;;19.08;4.78;;;12.00;99.90;;;;;;5029761;28;20217;-78
2024/01/24 08:21:28;;;;;;;19.00;5.35;;;12.00;99.90;;;;;;5033136;28;20205;-78
2024/01/24 08:24:12;;;;;;;21.70;5.65;;;12.00;99.90;;;;;;5028482;28;20203;-78
2024/01/24 08:26:41;;;;;;;16.48;4.35;;;11.90;99.90;;;;;;5032388;28;20202;-79
2024/01/24 08:29:08;;;;;;;17.15;4.32;;;12.00;99.90;;;;;;5033036;28;20218;-78
2024/01/24 08:31:36;;;;;;;17.65;4.05;;;11.90;99.90;;;;;;5051333;28;20194;-80
2024/01/24 08:34:03;;;;;;;19.15;5.32;;;11.90;99.90;;;;;;5053181;28;20678;-80
2024/01/24 08:36:37;;;;;;;15.32;5.07;;;11.90;99.90;;;;;;5053824;28;20210;-80
2024/01/24 08:39:06;;;;;;;15.10;4.10;;;12.00;99.90;;;;;;5030013;28;20214;-78
2024/01/24 08:41:48;;;;;;;23.35;4.82;;;11.90;99.90;;;;;;5032944;28;20206;-78
2024/01/24 08:44:15;;;;;;;19.00;5.15;;;11.90;99.90;;;;;;5035131;28;20666;-79
2024/01/24 08:46:43;;;;;;;20.40;4.65;;;11.90;99.90;;;;;;5028501;28;20199;-78
2024/01/24 08:49:12;;;;;;;17.75;4.90;;;11.90;99.90;;;;;;5048462;28;20222;-78
2024/01/24 08:51:40;;;;;;;17.50;5.22;;;11.90;99.90;;;;;;5039650;28;20588;-78
2024/01/24 08:54:08;;;;;;;11.55;3.70;;;11.90;99.90;;;;;;5031362;28;20648;-78
2024/01/24 08:56:35;;;;;;;25.33;5.05;;;11.90;99.90;;;;;;5028594;28;20241;-77
2024/01/24 08:59:04;;;;;;;17.85;4.72;;;11.90;99.90;;;;;;5028729;28;20233;-77
2024/01/24 09:01:32;;;;;;;17.88;5.47;;;11.90;99.90;;;;;;5029312;28;20207;-79
2024/01/24 09:03:59;;;;;;;19.48;4.57;;;12.00;99.90;;;;;;5036625;28;20198;-79
2024/01/24 09:06:34;;;;;;;21.48;5.10;;;11.90;99.90;;;;;;5051350;28;20199;-77
2024/01/24 09:09:06;;;;;;;19.30;4.85;;;11.90;99.90;;;;;;5031934;28;20559;-78
2024/01/24 09:11:34;;;;;;;17.27;5.00;;;11.90;99.90;;;;;;5027804;28;20195;-78
2024/01/24 09:14:06;;;;;;;20.80;4.70;;;11.90;99.90;;;;;;5035126;28;20209;-78
2024/01/24 09:16:33;;;;;;;17.60;4.70;;;11.90;99.90;;;;;;5034932;28;20218;-78
2024/01/24 09:19:01;;;;;;;21.88;4.63;;;11.90;99.90;;;;;;5039619;28;20198;-79
2024/01/24 09:21:28;;;;;;;18.38;4.38;;;11.90;99.90;;;;;;5034262;28;20190;-78
2024/01/24 09:23:55;;;;;;;13.13;3.75;;;11.90;99.90;;;;;;5037230;28;20308;-78
2024/01/24 09:26:24;;;;;;;20.52;4.15;;;12.00;99.90;;;;;;5042636;28;20558;-78
2024/01/24 09:28:55;;;;;;;17.70;4.53;;;11.90;99.90;;;;;;5055919;28;20194;-79
2024/01/24 09:31:35;;;;;;;17.23;4.35;;;11.90;99.90;;;;;;5049458;28;20206;-79
2024/01/24 09:34:09;;;;;;;19.25;5.35;;;11.80;99.90;;;;;;5034897;28;20549;-79
2024/01/24 09:36:50;;;;;;;18.92;5.00;;;11.80;99.90;;;;;;5044662;28;20202;-78
2024/01/24 09:39:22;;;;;;;17.38;4.88;;;11.80;99.90;;;;;;5044424;28;20225;-79
2024/01/24 09:41:52;;;;;;;20.27;4.55;;;11.80;99.90;;;;;;5057282;28;20210;-78
2024/01/24 09:44:19;;;;;;;23.00;5.57;;;11.80;99.90;;;;;;5037552;28;20199;-79
2024/01/24 09:46:53;;;;;;;24.65;5.53;;;11.80;99.90;;;;;;5035135;28;20202;-78
2024/01/24 09:49:21;;;;;;;19.75;4.88;;;11.80;99.90;;;;;;5034116;28;20678;-80
2024/01/24 09:51:50;;;;;;;16.42;5.30;;;11.80;99.90;;;;;;5057923;28;20229;-79
2024/01/24 09:54:18;;;;;;;19.50;5.30;;;11.80;99.90;;;;;;5045345;28;20194;-79
2024/01/24 09:56:48;;;;;;;23.48;5.03;;;11.80;99.90;;;;;;5028436;28;20199;-80
2024/01/24 09:59:16;;;;;;;19.25;5.03;;;11.80;99.90;;;;;;5030077;28;20710;-79
2024/01/24 10:01:43;;;;;;;15.13;5.60;;;11.90;99.90;;;;;;5036850;28;20213;-79
2024/01/24 10:04:14;;;;;;;21.08;6.03;;;11.80;99.90;;;;;;5036018;28;20687;-79
2024/01/24 10:06:43;;;;;;;16.08;5.03;;;11.80;99.90;;;;;;5025123;28;20695;-78
2024/01/24 10:09:11;;;;;;;17.53;4.40;;;11.80;99.90;;;;;;5031233;28;20835;-79
2024/01/24 10:11:52;;;;;;;19.58;5.28;;;11.70;99.90;;;;;;5040716;28;20206;-79
2024/01/24 10:14:19;;;;;;;19.23;4.47;;;11.70;99.90;;;;;;5030744;28;20194;-79
2024/01/24 10:16:48;;;;;;;17.35;5.55;;;11.80;99.90;;;;;;5027144;28;20584;-78
2024/01/24 10:19:18;;;;;;;19.40;6.07;;;11.70;99.90;;;;;;5032654;28;20228;-79
2024/01/24 10:21:47;;;;;;;13.77;4.40;;;11.70;99.90;;;;;;5035151;28;20209;-79
2024/01/24 10:24:14;;;;;;;20.63;4.45;;;11.70;99.90;;;;;;5033115;28;20206;-79
2024/01/24 10:26:44;;;;;;;18.33;5.30;;;11.70;99.90;;;;;;5046892;28;20210;-79
2024/01/24 10:29:12;;;;;;;15.03;5.07;;;11.70;99.90;;;;;;5058952;28;20221;-77
2024/01/24 10:31:39;;;;;;;18.65;4.65;;;11.80;99.90;;;;;;5069366;28;20187;-77
2024/01/24 10:34:07;;;;;;;18.83;4.70;;;11.80;99.90;;;;;;5055700;28;20209;-77
2024/01/24 10:36:38;;;;;;;15.60;4.53;;;11.70;99.90;;;;;;5054006;28;20187;-77
2024/01/24 10:39:12;;;;;;;21.63;5.00;;;11.80;99.90;;;;;;5048925;28;20222;-77
2024/01/24 10:41:58;;;;;;;18.63;4.97;;;11.70;99.90;;;;;;5065491;28;20198;-78
2024/01/24 10:48:59;;;;;;;21.57;4.90;;;11.70;99.90;;;;;;4860630;29;20201;-78
2024/01/24 10:51:28;;;;;;;21.03;5.20;;;11.70;99.90;;;;;;4895177;28;20363;-79
2024/01/24 10:53:57;;;;;;;21.70;5.43;;;11.70;99.90;;;;;;5034815;28;20201;-79
2024/01/24 10:56:25;;;;;;;18.40;5.38;;;11.70;99.90;;;;;;5034554;28;20206;-79
2024/01/24 10:59:03;;;;;;;17.95;5.30;;;11.70;99.90;;;;;;5036397;28;20219;-78
2024/01/24 11:01:30;;;;;;;25.02;5.53;;;11.70;99.90;;;;;;5035827;28;20202;-78
2024/01/24 11:03:59;;;;;;;19.08;5.50;;;11.70;99.90;;;;;;5039685;28;20198;-78
2024/01/24 11:06:29;;;;;;;22.73;5.30;;;11.70;99.90;;;;;;5045632;28;20680;-79
2024/01/24 11:09:08;;;;;;;18.08;6.47;;;11.80;99.90;;;;;;5034105;28;20195;-79
2024/01/24 11:11:38;;;;;;;19.13;4.65;;;11.70;99.90;;;;;;5030997;28;20265;-78
2024/01/24 11:14:06;;;;;;;16.77;4.82;;;11.70;99.90;;;;;;5029001;28;20202;-79
2024/01/24 11:16:37;;;;;;;20.42;5.20;;;11.70;99.90;;;;;;5050158;28;20198;-79
2024/01/24 11:19:20;;;;;;;22.25;5.32;;;11.70;99.90;;;;;;5035892;28;20225;-78
2024/01/24 11:21:48;;;;;;;24.57;6.37;;;11.80;99.90;;;;;;5045234;28;20198;-77
2024/01/24 11:24:50;;;;;;;16.55;5.03;;;11.70;99.90;;;;;;5033808;28;20214;-78
2024/01/24 11:27:36;;;;;;;17.10;4.82;;;11.80;99.90;;;;;;5040275;28;20202;-79
2024/01/24 11:30:27;;;;;;;20.48;4.35;;;11.70;99.90;;;;;;5031135;28;20214;-78
2024/01/24 11:33:02;;;;;;;15.90;4.37;;;11.70;99.90;;;;;;5038789;28;20195;-78
2024/01/24 11:35:35;;;;;;;25.05;6.20;;;11.80;99.90;;;;;;5038807;28;20198;-78
2024/01/24 11:38:07;;;;;;;21.17;5.30;;;11.70;99.90;;;;;;5040357;28;20210;-78
2024/01/24 11:40:37;;;;;;;16.52;4.97;;;11.70;99.90;;;;;;5038187;28;20218;-79
2024/01/24 11:43:05;;;;;;;19.88;4.57;;;11.70;99.90;;;;;;5029090;28;20207;-79
2024/01/24 11:45:34;;;;;;;14.30;4.70;;;11.70;99.90;;;;;;5034329;28;20195;-78
2024/01/24 11:48:02;;;;;;;17.15;4.35;;;11.70;99.90;;;;;;5020576;28;20581;-78
2024/01/24 11:50:29;;;;;;;18.45;5.00;;;12.00;99.90;;;;;;5033667;28;20552;-78
2024/01/24 11:53:00;;;;;;;13.50;3.97;;;12.10;99.90;;;;;;5032145;28;20199;-78
2024/01/24 11:55:28;;;;;;;20.73;4.63;;;11.80;99.90;;;;;;5036634;28;20207;-78
2024/01/24 11:57:57;;;;;;;18.90;5.13;;;11.80;99.90;;;;;;5034922;28;20234;-78
2024/01/24 12:00:26;;;;;;;16.15;5.13;;;11.70;99.90;;;;;;5039842;28;20226;-78
2024/01/24 12:02:54;;;;;;;19.27;4.70;;;11.70;99.90;;;;;;5047042;28;20194;-77
2024/01/24 12:05:21;;;;;;;14.85;4.68;;;11.70;99.90;;;;;;5037612;28;20205;-78
2024/01/24 12:07:49;;;;;;;17.53;4.47;;;11.70;99.90;;;;;;5034014;28;20209;-78
2024/01/24 12:10:16;;;;;;;19.58;5.38;;;11.70;99.90;;;;;;5027067;28;20676;-78
2024/01/24 12:12:45;;;;;;;15.25;3.78;;;11.70;99.90;;;;;;5051013;28;20183;-78
2024/01/24 12:15:14;;;;;;;19.02;5.35;;;11.60;99.90;;;;;;5054864;28;20679;-78
2024/01/24 12:17:41;;;;;;;21.98;5.50;;;11.60;99.90;;;;;;5034292;28;20202;-78
2024/01/24 12:20:13;;;;;;;16.88;4.78;;;11.60;99.90;;;;;;5029936;28;20222;-78
2024/01/24 12:22:43;;;;;;;17.17;5.18;;;11.70;99.90;;;;;;5028963;28;20195;-78
2024/01/24 12:25:10;;;;;;;15.23;4.18;;;11.60;99.90;;;;;;5031862;28;20203;-78
2024/01/24 12:27:38;;;;;;;23.35;5.32;;;11.60;99.90;;;;;;5049287;28;20191;-78
2024/01/24 12:30:07;;;;;;;15.23;4.50;;;11.60;99.90;;;;;;5055892;28;20572;-78
2024/01/24 12:32:36;;;;;;;18.30;4.73;;;11.60;99.90;;;;;;5030148;28;20198;-78
2024/01/24 12:35:06;;;;;;;20.25;5.43;;;11.60;99.90;;;;;;5055659;28;20198;-78
2024/01/24 12:37:44;;;;;;;14.13;4.63;;;11.70;99.90;;;;;;5041431;28;20656;-77
2024/01/24 12:40:14;;;;;;;19.40;4.83;;;11.60;99.90;;;;;;5041892;28;20226;-78
2024/01/24 12:42:42;;;;;;;21.00;4.93;;;11.70;99.90;;;;;;5032128;28;20202;-79
2024/01/24 12:45:12;;;;;;;20.10;4.10;;;11.70;99.90;;;;;;5033390;28;20210;-77
2024/01/24 12:47:42;;;;;;;18.65;4.82;;;11.60;99.90;;;;;;5064126;28;20565;-77
2024/01/24 12:50:19;;;;;;;19.10;5.30;;;11.70;99.90;;;;;;5034606;28;20222;-78
2024/01/24 12:52:52;;;;;;;17.63;4.75;;;11.70;99.90;;;;;;5039433;28;20582;-78
2024/01/24 12:55:20;;;;;;;15.60;5.15;;;11.70;99.90;;;;;;5052615;28;20195;-77
2024/01/24 12:57:47;;;;;;;19.98;5.18;;;11.70;99.90;;;;;;5029187;28;20281;-78
2024/01/24 13:00:16;;;;;;;17.03;4.10;;;11.60;99.90;;;;;;5054356;28;20226;-78
2024/01/24 13:02:50;;;;;;;18.77;4.40;;;11.70;99.90;;;;;;5032153;28;20209;-78
2024/01/24 13:05:31;;;;;;;23.35;5.18;;;11.70;99.90;;;;;;5031042;28;20221;-78